createdAt,value
2022-08-26T00:02:01.530Z,13.77
2022-08-26T00:04:30.443Z,13.75
2022-08-26T00:06:59.589Z,12.85
2022-08-26T00:09:29.899Z,13.63
2022-08-26T00:11:58.743Z,14.50
2022-08-26T00:14:31.232Z,14.00
2022-08-26T00:17:00.718Z,14.55
2022-08-26T00:19:29.935Z,13.90
2022-08-26T00:21:58.720Z,12.93
2022-08-26T00:24:29.798Z,13.15
2022-08-26T00:27:00.002Z,13.43
2022-08-26T00:29:30.486Z,14.10
2022-08-26T00:32:04.077Z,13.63
2022-08-26T00:34:33.019Z,14.32
2022-08-26T00:37:02.222Z,13.88
2022-08-26T00:39:33.616Z,13.82
2022-08-26T00:42:02.396Z,13.38
2022-08-26T00:44:31.233Z,14.48
2022-08-26T00:47:08.977Z,13.32
2022-08-26T00:49:41.707Z,14.02
2022-08-26T00:52:16.410Z,13.63
2022-08-26T00:54:58.681Z,13.27
2022-08-26T00:57:28.869Z,14.45
2022-08-26T01:00:02.582Z,13.63
2022-08-26T01:02:31.613Z,13.68
2022-08-26T01:05:04.194Z,13.55
2022-08-26T01:07:35.995Z,13.88
2022-08-26T01:10:11.222Z,13.88
2022-08-26T01:12:46.441Z,13.75
2022-08-26T01:15:22.098Z,13.60
2022-08-26T01:17:51.504Z,13.57
2022-08-26T01:20:34.125Z,13.00
2022-08-26T01:23:08.713Z,14.15
2022-08-26T01:25:44.254Z,13.60
2022-08-26T01:28:21.758Z,12.98
2022-08-26T01:30:54.276Z,13.85
2022-08-26T01:33:29.626Z,13.30
2022-08-26T01:36:09.928Z,13.45
2022-08-26T01:38:40.798Z,12.88
2022-08-26T01:41:16.286Z,13.80
2022-08-26T01:43:54.522Z,13.55
2022-08-26T01:46:25.090Z,12.88
2022-08-26T01:48:58.446Z,14.43
2022-08-26T01:51:29.804Z,14.02
2022-08-26T01:54:02.018Z,14.55
2022-08-26T01:56:33.256Z,13.18
2022-08-26T01:59:10.676Z,13.43
2022-08-26T02:01:41.622Z,13.82
2022-08-26T02:04:20.186Z,13.45
2022-08-26T02:06:50.761Z,14.30
2022-08-26T02:09:23.691Z,14.07
2022-08-26T02:11:54.419Z,14.20
2022-08-26T02:14:30.393Z,13.57
2022-08-26T02:16:59.500Z,14.35
2022-08-26T02:19:33.089Z,13.15
2022-08-26T02:22:06.528Z,14.38
2022-08-26T02:24:52.159Z,13.30
2022-08-26T02:27:25.067Z,12.70
2022-08-26T02:30:03.983Z,13.13
2022-08-26T02:32:34.115Z,14.10
2022-08-26T02:35:04.022Z,13.02
2022-08-26T02:37:34.088Z,13.23
2022-08-26T02:40:06.072Z,13.80
2022-08-26T02:42:35.354Z,12.73
2022-08-26T02:45:04.780Z,14.40
2022-08-26T02:47:35.384Z,13.65
2022-08-26T02:50:05.565Z,13.73
2022-08-26T02:52:34.509Z,13.85
2022-08-26T02:55:05.868Z,13.63
2022-08-26T02:57:34.627Z,13.70
2022-08-26T03:00:05.680Z,13.32
2022-08-26T03:02:34.395Z,14.27
2022-08-26T03:05:03.102Z,13.05
2022-08-26T03:07:31.937Z,12.70
2022-08-26T03:10:00.807Z,12.20
2022-08-26T03:12:31.044Z,12.65
2022-08-26T03:14:59.880Z,12.50
2022-08-26T03:17:30.680Z,13.10
2022-08-26T03:19:59.637Z,13.45
2022-08-26T03:22:28.471Z,12.95
2022-08-26T03:24:57.139Z,12.85
2022-08-26T03:27:25.854Z,12.70
2022-08-26T03:30:12.599Z,13.73
2022-08-26T03:32:44.601Z,12.48
2022-08-26T03:35:13.957Z,12.98
2022-08-26T03:37:43.467Z,13.82
2022-08-26T03:40:14.019Z,13.98
2022-08-26T03:42:45.381Z,12.90
2022-08-26T03:45:18.057Z,12.45
2022-08-26T03:47:48.080Z,13.00
2022-08-26T03:50:24.270Z,12.18
2022-08-26T03:52:55.701Z,13.07
2022-08-26T03:55:28.226Z,12.63
2022-08-26T03:57:56.988Z,12.35
2022-08-26T04:00:27.869Z,13.10
2022-08-26T04:02:56.806Z,12.93
2022-08-26T04:05:25.926Z,13.30
2022-08-26T04:07:57.021Z,12.15
2022-08-26T04:10:28.955Z,12.68
2022-08-26T04:12:59.426Z,12.75
2022-08-26T04:15:30.147Z,12.20
2022-08-26T04:17:58.884Z,12.05
2022-08-26T04:20:28.628Z,12.32
2022-08-26T04:22:57.331Z,12.90
2022-08-26T04:25:27.328Z,11.93
2022-08-26T04:27:56.221Z,12.82
2022-08-26T04:30:26.238Z,13.35
2022-08-26T04:32:56.649Z,12.60
2022-08-26T04:35:26.541Z,13.00
2022-08-26T04:37:56.261Z,12.45
2022-08-26T04:40:27.683Z,12.35
2022-08-26T04:42:59.279Z,12.68
2022-08-26T04:45:28.960Z,12.15
2022-08-26T04:48:23.280Z,12.07
2022-08-26T04:50:52.763Z,12.65
2022-08-26T04:53:21.745Z,12.63
2022-08-26T04:55:52.412Z,12.23
2022-08-26T04:58:26.273Z,12.35
2022-08-26T05:00:57.459Z,12.15
2022-08-26T05:03:30.558Z,12.55
2022-08-26T05:06:00.159Z,12.38
2022-08-26T05:08:29.097Z,11.80
2022-08-26T05:10:59.046Z,11.93
2022-08-26T05:13:29.681Z,12.50
2022-08-26T05:16:01.166Z,12.65
2022-08-26T05:18:31.582Z,12.77
2022-08-26T05:21:00.250Z,11.27
2022-08-26T05:23:32.438Z,12.18
2022-08-26T05:26:02.082Z,12.65
2022-08-26T05:28:33.953Z,11.18
2022-08-26T05:31:12.823Z,12.10
2022-08-26T05:33:45.748Z,12.45
2022-08-26T05:36:18.042Z,11.63
2022-08-26T05:38:47.856Z,12.02
2022-08-26T05:41:21.703Z,12.20
2022-08-26T05:43:50.498Z,12.75
2022-08-26T05:46:20.197Z,12.38
2022-08-26T05:48:51.781Z,12.10
2022-08-26T05:51:25.416Z,12.32
2022-08-26T05:53:55.935Z,13.23
2022-08-26T05:56:27.635Z,12.32
2022-08-26T05:58:58.350Z,11.88
2022-08-26T06:01:29.799Z,12.68
2022-08-26T06:04:02.825Z,13.05
2022-08-26T06:06:35.266Z,12.65
2022-08-26T06:09:09.455Z,13.05
2022-08-26T06:11:40.521Z,12.90
2022-08-26T06:14:12.510Z,13.80
2022-08-26T06:16:45.268Z,13.30
2022-08-26T06:19:17.490Z,13.20
2022-08-26T06:21:54.119Z,12.43
2022-08-26T06:24:49.927Z,13.00
2022-08-26T06:27:20.011Z,12.73
2022-08-26T06:45:39.592Z,11.82
2022-08-26T06:48:09.714Z,12.43
2022-08-26T06:50:38.707Z,12.27
2022-08-26T06:53:08.247Z,12.23
2022-08-26T06:55:42.466Z,12.38
2022-08-26T06:58:11.613Z,11.98
2022-08-26T07:00:47.270Z,12.10
2022-08-26T07:03:16.652Z,12.63
2022-08-26T07:05:50.809Z,12.88
2022-08-26T07:08:23.865Z,13.30
2022-08-26T07:10:52.537Z,12.82
2022-08-26T07:13:30.580Z,12.50
2022-08-26T07:16:03.158Z,12.52
2022-08-26T07:18:33.315Z,12.73
2022-08-26T07:21:05.451Z,12.13
2022-08-26T07:23:35.412Z,12.55
2022-08-26T07:26:07.381Z,11.10
2022-08-26T07:28:37.074Z,12.18
2022-08-26T07:31:09.810Z,11.95
2022-08-26T07:33:40.710Z,11.80
2022-08-26T07:36:12.791Z,12.23
2022-08-26T07:38:44.380Z,12.38
2022-08-26T07:41:15.217Z,12.35
2022-08-26T07:43:44.909Z,11.88
2022-08-26T07:46:18.666Z,11.32
2022-08-26T07:48:56.496Z,10.95
2022-08-26T07:51:25.547Z,11.65
2022-08-26T07:53:55.462Z,11.85
2022-08-26T07:56:26.678Z,12.10
2022-08-26T07:58:56.090Z,11.98
2022-08-26T08:01:29.722Z,11.77
2022-08-26T08:04:00.504Z,13.30
2022-08-26T08:06:31.158Z,13.18
2022-08-26T08:09:01.312Z,12.00
2022-08-26T08:11:31.582Z,12.73
2022-08-26T08:14:01.893Z,12.82
2022-08-26T08:16:36.381Z,12.00
2022-08-26T08:19:07.058Z,12.25
2022-08-26T08:21:36.358Z,11.95
2022-08-26T08:24:05.785Z,11.05
2022-08-26T08:26:35.349Z,11.40
2022-08-26T08:29:08.614Z,12.35
2022-08-26T08:31:56.829Z,11.43
2022-08-26T08:34:29.215Z,12.48
2022-08-26T08:37:00.087Z,12.38
2022-08-26T08:39:29.267Z,12.50
2022-08-26T08:42:42.062Z,12.30
2022-08-26T08:45:16.848Z,12.48
2022-08-26T08:47:54.774Z,11.80
2022-08-26T08:50:30.451Z,12.23
2022-08-26T08:53:19.410Z,12.18
2022-08-26T08:56:06.552Z,11.60
2022-08-26T08:58:57.398Z,12.65
2022-08-26T09:01:56.556Z,13.85
2022-08-26T09:05:15.049Z,12.73
2022-08-26T09:07:49.740Z,13.40
2022-08-26T09:10:36.100Z,13.55
2022-08-26T09:13:09.859Z,12.93
2022-08-26T09:16:02.792Z,14.40
2022-08-26T09:18:54.231Z,14.23
2022-08-26T09:21:26.888Z,13.70
2022-08-26T09:23:57.634Z,12.30
2022-08-26T09:26:31.098Z,13.13
2022-08-26T09:29:03.097Z,13.10
2022-08-26T09:31:35.872Z,12.98
2022-08-26T09:34:17.319Z,12.90
2022-08-26T09:36:50.373Z,13.35
2022-08-26T09:39:34.644Z,13.48
2022-08-26T09:42:12.955Z,13.15
2022-08-26T09:45:00.848Z,14.25
2022-08-26T09:47:33.992Z,13.88
2022-08-26T09:50:12.377Z,13.32
2022-08-26T09:52:43.439Z,13.77
2022-08-26T09:55:24.177Z,13.65
2022-08-26T09:57:55.712Z,13.02
2022-08-26T10:00:34.988Z,13.15
2022-08-26T10:03:12.598Z,12.68
2022-08-26T10:05:59.543Z,13.13
2022-08-26T10:08:35.185Z,11.93
2022-08-26T10:11:12.491Z,12.75
2022-08-26T10:13:49.551Z,10.95
2022-08-26T10:16:23.555Z,10.60
2022-08-26T10:19:02.091Z,10.18
2022-08-26T10:21:39.117Z,9.98
2022-08-26T10:24:17.056Z,9.27
2022-08-26T10:26:58.777Z,10.10
2022-08-26T10:29:38.440Z,8.07
2022-08-26T10:32:22.555Z,8.13
2022-08-26T10:34:51.735Z,8.05
2022-08-26T10:37:29.972Z,8.38
2022-08-26T10:40:08.711Z,7.95
2022-08-26T10:42:45.990Z,7.80
2022-08-26T10:45:19.987Z,8.25
2022-08-26T10:47:57.089Z,8.30
2022-08-26T10:50:35.670Z,8.55
2022-08-26T10:53:17.236Z,7.18
2022-08-26T10:56:01.255Z,7.50
2022-08-26T10:58:49.783Z,7.57
2022-08-26T11:01:44.191Z,7.78
2022-08-26T11:04:38.378Z,7.80
2022-08-26T11:07:43.499Z,6.88
2022-08-26T11:10:59.150Z,7.20
2022-08-26T11:14:04.110Z,8.07
2022-08-26T11:16:43.711Z,8.32
2022-08-26T11:20:00.826Z,7.43
2022-08-26T11:22:33.837Z,7.20
2022-08-26T11:25:13.397Z,7.32
2022-08-26T11:28:06.346Z,6.63
2022-08-26T11:30:57.017Z,6.68
2022-08-26T11:33:52.828Z,6.80
2022-08-26T11:36:53.313Z,6.50
2022-08-26T11:39:28.734Z,6.60
2022-08-26T11:42:07.408Z,6.05
2022-08-26T11:44:49.607Z,6.05
2022-08-26T11:47:29.305Z,5.38
2022-08-26T11:50:18.552Z,5.53
2022-08-26T11:52:57.336Z,4.60
2022-08-26T11:55:26.072Z,4.75
2022-08-26T11:58:00.946Z,4.82
2022-08-26T12:00:40.368Z,4.60
2022-08-26T12:03:20.762Z,4.50
2022-08-26T12:05:55.547Z,4.38
2022-08-26T12:08:30.643Z,4.20
2022-08-26T12:11:09.814Z,4.75
2022-08-26T12:13:39.470Z,4.63
2022-08-26T12:16:11.047Z,5.15
2022-08-26T12:18:41.303Z,4.55
2022-08-26T12:21:22.708Z,5.00
2022-08-26T12:23:57.256Z,4.80
2022-08-26T12:26:31.441Z,4.68
2022-08-26T12:29:19.800Z,4.90
2022-08-26T12:31:51.694Z,4.80
2022-08-26T12:34:21.691Z,5.00
2022-08-26T12:39:30.486Z,5.00
2022-08-26T12:42:01.949Z,5.45
2022-08-26T12:44:53.237Z,4.97
2022-08-26T12:47:39.080Z,5.43
2022-08-26T12:50:21.910Z,5.55
2022-08-26T12:53:00.871Z,5.22
2022-08-26T12:55:43.810Z,5.25
2022-08-26T12:58:31.894Z,5.38
2022-08-26T13:01:25.506Z,5.53
2022-08-26T13:03:56.077Z,5.55
2022-08-26T13:06:31.513Z,5.88
2022-08-26T13:09:03.106Z,5.43
2022-08-26T13:11:36.202Z,4.95
2022-08-26T13:14:08.583Z,5.80
2022-08-26T13:16:41.674Z,5.38
2022-08-26T13:19:16.352Z,5.25
2022-08-26T13:21:49.125Z,5.55
2022-08-26T13:24:22.601Z,5.10
2022-08-26T13:26:52.446Z,5.03
2022-08-26T13:29:21.683Z,4.57
2022-08-26T13:31:51.860Z,5.07
2022-08-26T13:34:24.359Z,4.50
2022-08-26T13:36:56.438Z,5.35
2022-08-26T13:39:27.178Z,4.88
2022-08-26T13:41:57.890Z,5.30
2022-08-26T13:44:26.697Z,5.63
2022-08-26T13:46:55.782Z,5.50
2022-08-26T13:49:26.277Z,5.38
2022-08-26T13:51:55.088Z,6.43
2022-08-26T13:54:24.449Z,6.20
2022-08-26T13:56:53.249Z,5.97
2022-08-26T13:59:22.102Z,5.75
2022-08-26T14:01:51.519Z,5.20
2022-08-26T14:04:23.283Z,5.80
2022-08-26T14:06:57.904Z,6.20
2022-08-26T14:09:26.732Z,6.38
2022-08-26T14:11:55.900Z,5.57
2022-08-26T14:14:25.174Z,5.47
2022-08-26T14:16:59.719Z,5.43
2022-08-26T14:19:31.278Z,5.88
2022-08-26T14:22:02.468Z,5.53
2022-08-26T14:24:31.847Z,6.10
2022-08-26T14:27:01.019Z,5.88
2022-08-26T14:29:29.779Z,5.60
2022-08-26T14:31:59.792Z,5.43
2022-08-26T14:34:28.750Z,5.63
2022-08-26T14:36:57.728Z,6.10
2022-08-26T14:39:38.239Z,6.13
2022-08-26T14:42:09.126Z,6.50
2022-08-26T14:44:38.637Z,5.70
2022-08-26T14:47:08.460Z,5.95
2022-08-26T14:49:37.416Z,6.22
2022-08-26T14:52:06.628Z,6.63
2022-08-26T14:54:37.524Z,6.47
2022-08-26T14:57:09.660Z,5.55
2022-08-26T14:59:40.647Z,5.60
2022-08-26T15:02:13.818Z,4.85
2022-08-26T15:04:47.008Z,6.05
2022-08-26T15:07:15.789Z,6.28
2022-08-26T15:09:45.959Z,5.50
2022-08-26T15:12:14.865Z,5.65
2022-08-26T15:14:43.771Z,6.75
2022-08-26T15:17:13.119Z,6.25
2022-08-26T15:19:41.958Z,6.15
2022-08-26T15:22:10.834Z,5.80
2022-08-26T15:24:39.888Z,5.35
2022-08-26T15:27:10.679Z,5.15
2022-08-26T15:29:39.840Z,5.47
2022-08-26T15:32:08.794Z,6.40
2022-08-26T15:34:37.631Z,6.07
2022-08-26T15:37:08.532Z,6.32
2022-08-26T15:39:37.536Z,5.25
2022-08-26T15:42:07.108Z,6.28
2022-08-26T15:44:37.389Z,6.00
2022-08-26T15:47:06.469Z,6.07
2022-08-26T15:49:35.289Z,5.82
2022-08-26T15:52:05.478Z,6.63
2022-08-26T15:54:35.248Z,6.57
2022-08-26T15:57:07.171Z,7.03
2022-08-26T15:59:39.700Z,6.07
2022-08-26T16:02:09.239Z,6.65
2022-08-26T16:04:38.380Z,6.80
2022-08-26T16:07:07.594Z,6.65
2022-08-26T16:09:36.529Z,5.97
2022-08-26T16:12:06.037Z,5.20
2022-08-26T16:14:35.365Z,5.65
2022-08-26T16:17:05.713Z,5.72
2022-08-26T16:19:34.496Z,5.18
2022-08-26T16:22:03.264Z,5.82
2022-08-26T16:24:32.066Z,5.60
2022-08-26T16:27:00.862Z,3.80
2022-08-26T16:29:31.609Z,5.20
2022-08-26T16:32:00.374Z,4.88
2022-08-26T16:34:30.759Z,5.10
2022-08-26T16:37:00.689Z,4.55
2022-08-26T16:39:30.004Z,4.88
2022-08-26T16:41:59.292Z,5.57
2022-08-26T16:44:28.100Z,5.20
2022-08-26T16:46:59.769Z,6.03
2022-08-26T16:49:30.191Z,5.97
2022-08-26T16:51:59.597Z,6.55
2022-08-26T16:54:28.562Z,15.45
2022-08-26T16:56:57.959Z,5.97
2022-08-26T16:59:26.853Z,5.95
2022-08-26T17:01:56.050Z,5.78
2022-08-26T17:04:25.014Z,5.70
2022-08-26T17:06:55.908Z,5.13
2022-08-26T17:09:25.349Z,5.90
2022-08-26T17:11:56.239Z,5.32
2022-08-26T17:14:25.470Z,5.45
2022-08-26T17:16:56.430Z,5.75
2022-08-26T17:19:28.185Z,6.10
2022-08-26T17:22:08.014Z,6.15
2022-08-26T17:24:38.520Z,6.57
2022-08-26T17:27:08.416Z,6.63
2022-08-26T17:29:41.433Z,6.38
2022-08-26T17:32:12.905Z,6.32
2022-08-26T17:34:44.430Z,6.30
2022-08-26T17:37:15.026Z,6.30
2022-08-26T17:39:44.227Z,6.40
2022-08-26T17:42:16.235Z,6.60
2022-08-26T17:44:49.335Z,6.60
2022-08-26T17:47:19.895Z,5.53
2022-08-26T17:49:50.959Z,6.72
2022-08-26T17:52:22.097Z,7.15
2022-08-26T17:54:53.901Z,6.60
2022-08-26T17:57:23.297Z,6.50
2022-08-26T17:59:54.301Z,6.93
2022-08-26T18:02:24.316Z,6.63
2022-08-26T18:04:53.833Z,6.35
2022-08-26T18:07:24.395Z,6.60
2022-08-26T18:09:53.527Z,6.63
2022-08-26T18:12:23.251Z,6.57
2022-08-26T18:14:57.317Z,6.93
2022-08-26T18:17:28.149Z,7.10
2022-08-26T18:19:59.235Z,6.72
2022-08-26T18:22:30.310Z,6.63
2022-08-26T18:24:59.567Z,6.07
2022-08-26T18:27:28.734Z,6.53
2022-08-26T18:29:58.413Z,6.88
2022-08-26T18:32:27.746Z,7.25
2022-08-26T18:34:58.116Z,7.03
2022-08-26T18:37:31.436Z,7.30
2022-08-26T18:40:00.682Z,8.05
2022-08-26T18:42:30.678Z,7.10
2022-08-26T18:45:00.113Z,7.78
2022-08-26T18:47:30.595Z,7.53
2022-08-26T18:50:01.454Z,8.93
2022-08-26T18:52:34.147Z,9.32
2022-08-26T18:55:04.527Z,8.25
2022-08-26T18:57:34.017Z,8.32
2022-08-26T19:00:03.944Z,8.52
2022-08-26T19:02:34.711Z,8.20
2022-08-26T19:05:06.635Z,7.68
2022-08-26T19:07:39.704Z,8.25
2022-08-26T19:10:12.086Z,7.65
2022-08-26T19:12:42.584Z,9.57
2022-08-26T19:15:14.394Z,8.63
2022-08-26T19:17:43.567Z,8.80
2022-08-26T19:20:16.193Z,9.10
2022-08-26T19:22:46.729Z,9.75
2022-08-26T19:25:15.910Z,8.38
